createdAt,value
2022-12-04T00:01:08.679Z,1.40
2022-12-04T00:03:36.702Z,1.00
2022-12-04T00:06:10.072Z,1.08
2022-12-04T00:08:38.543Z,1.20
2022-12-04T00:11:08.228Z,1.65
2022-12-04T00:13:36.231Z,1.33
2022-12-04T00:16:08.611Z,1.30
2022-12-04T00:18:36.428Z,1.70
2022-12-04T00:21:06.018Z,1.63
2022-12-04T00:23:34.890Z,1.40
2022-12-04T00:26:04.798Z,1.75
2022-12-04T00:28:33.043Z,1.30
2022-12-04T00:31:00.759Z,1.70
2022-12-04T00:33:28.259Z,1.70
2022-12-04T00:36:00.209Z,1.55
2022-12-04T00:38:28.535Z,1.88
2022-12-04T00:40:56.325Z,1.73
2022-12-04T00:43:24.459Z,1.70
2022-12-04T00:45:51.983Z,1.20
2022-12-04T00:48:19.723Z,1.35
2022-12-04T00:50:47.769Z,1.00
2022-12-04T00:53:15.564Z,1.52
2022-12-04T00:55:44.219Z,1.08
2022-12-04T00:58:12.772Z,1.63
2022-12-04T01:00:43.657Z,1.65
2022-12-04T01:03:11.550Z,1.90
2022-12-04T01:05:41.186Z,1.60
2022-12-04T01:08:10.164Z,1.13
2022-12-04T01:10:42.274Z,1.73
2022-12-04T01:13:09.789Z,1.55
2022-12-04T01:15:43.627Z,1.98
2022-12-04T01:18:12.040Z,1.77
2022-12-04T01:20:40.063Z,1.58
2022-12-04T01:23:07.806Z,2.17
2022-12-04T01:25:35.337Z,2.22
2022-12-04T01:28:02.895Z,1.50
2022-12-04T01:30:30.483Z,1.98
2022-12-04T01:32:58.084Z,1.50
2022-12-04T01:35:25.587Z,1.60
2022-12-04T01:37:53.171Z,1.60
2022-12-04T01:40:20.673Z,1.23
2022-12-04T01:42:48.364Z,1.50
2022-12-04T01:45:47.675Z,1.92
2022-12-04T01:48:24.438Z,1.85
2022-12-04T01:50:58.407Z,1.30
2022-12-04T01:53:26.385Z,1.67
2022-12-04T01:55:55.264Z,1.20
2022-12-04T01:58:29.721Z,2.08
2022-12-04T02:01:07.987Z,1.80
2022-12-04T02:03:37.293Z,1.60
2022-12-04T02:06:05.745Z,1.80
2022-12-04T02:08:34.897Z,1.60
2022-12-04T02:11:30.864Z,1.30
2022-12-04T02:14:13.494Z,1.63
2022-12-04T02:16:51.492Z,2.07
2022-12-04T02:19:50.188Z,1.55
2022-12-04T02:22:47.216Z,1.80
2022-12-04T02:25:20.799Z,1.70
2022-12-04T02:27:57.626Z,1.30
2022-12-04T02:30:27.286Z,1.15
2022-12-04T02:33:03.742Z,1.58
2022-12-04T02:35:46.652Z,1.63
2022-12-04T02:38:32.875Z,1.67
2022-12-04T02:41:08.201Z,1.40
2022-12-04T02:43:51.194Z,1.65
2022-12-04T02:46:31.284Z,1.67
2022-12-04T02:49:02.557Z,1.50
2022-12-04T02:51:34.207Z,1.40
2022-12-04T02:54:23.332Z,1.30
2022-12-04T02:56:53.286Z,1.50
2022-12-04T02:59:32.107Z,1.35
2022-12-04T03:02:04.111Z,1.52
2022-12-04T03:04:32.710Z,1.35
2022-12-04T03:07:06.593Z,1.55
2022-12-04T03:09:39.239Z,1.60
2022-12-04T03:12:35.216Z,1.35
2022-12-04T03:15:08.920Z,1.50
2022-12-04T03:17:55.702Z,1.50
2022-12-04T03:20:24.365Z,1.75
2022-12-04T03:23:22.127Z,1.70
2022-12-04T03:26:10.650Z,1.50
2022-12-04T03:28:49.930Z,1.73
2022-12-04T03:31:29.196Z,1.20
2022-12-04T03:34:00.608Z,1.48
2022-12-04T03:36:35.170Z,1.80
2022-12-04T03:39:17.604Z,2.13
2022-12-04T03:42:38.744Z,1.58
2022-12-04T03:45:35.220Z,1.50
2022-12-04T03:48:18.172Z,2.58
2022-12-04T03:51:03.112Z,1.55
2022-12-04T03:53:39.486Z,2.75
2022-12-04T03:56:29.470Z,2.10
2022-12-04T03:59:03.374Z,1.85
2022-12-04T04:01:35.855Z,2.17
2022-12-04T04:04:07.604Z,2.10
2022-12-04T04:06:40.437Z,1.80
2022-12-04T04:09:18.830Z,2.30
2022-12-04T04:11:52.721Z,1.65
2022-12-04T04:14:55.230Z,1.92
2022-12-04T04:17:49.226Z,1.73
2022-12-04T04:20:41.741Z,1.70
2022-12-04T04:23:30.733Z,1.63
2022-12-04T04:26:00.795Z,1.77
2022-12-04T04:28:38.425Z,1.30
2022-12-04T04:31:37.045Z,1.70
2022-12-04T04:34:20.601Z,1.63
2022-12-04T04:37:09.456Z,2.08
2022-12-04T04:40:01.287Z,2.65
2022-12-04T04:42:34.960Z,2.60
2022-12-04T04:45:27.732Z,2.03
2022-12-04T04:48:09.871Z,2.83
2022-12-04T04:50:39.557Z,1.95
2022-12-04T04:53:13.679Z,2.00
2022-12-04T04:55:42.284Z,2.25
2022-12-04T04:58:13.845Z,1.95
2022-12-04T05:00:59.791Z,2.22
2022-12-04T05:03:28.290Z,2.20
2022-12-04T05:05:56.046Z,2.25
2022-12-04T05:08:23.757Z,2.22
2022-12-04T05:10:51.476Z,2.55
2022-12-04T05:13:21.825Z,2.45
2022-12-04T05:16:03.136Z,2.10
2022-12-04T05:18:32.268Z,1.98
2022-12-04T05:20:59.827Z,2.75
2022-12-04T05:23:27.268Z,1.98
2022-12-04T05:26:02.843Z,1.90
2022-12-04T05:28:30.572Z,1.77
2022-12-04T05:31:00.046Z,2.38
2022-12-04T05:33:28.400Z,1.40
2022-12-04T05:36:07.820Z,2.03
2022-12-04T05:38:36.263Z,1.80
2022-12-04T05:41:06.186Z,1.58
2022-12-04T05:43:34.468Z,2.03
2022-12-04T05:46:07.100Z,1.85
2022-12-04T05:48:35.813Z,2.13
2022-12-04T05:51:10.613Z,2.00
2022-12-04T05:53:38.723Z,1.88
2022-12-04T05:56:07.589Z,1.80
2022-12-04T05:58:38.875Z,2.40
2022-12-04T06:01:16.024Z,1.80
2022-12-04T06:03:44.005Z,1.45
2022-12-04T06:06:21.472Z,1.90
2022-12-04T06:08:51.800Z,1.30
2022-12-04T06:11:22.193Z,1.48
2022-12-04T06:13:49.873Z,1.25
2022-12-04T06:16:20.397Z,1.83
2022-12-04T06:18:53.381Z,1.70
2022-12-04T06:21:23.172Z,1.73
2022-12-04T06:23:51.824Z,1.30
2022-12-04T06:26:20.106Z,1.60
2022-12-04T06:28:47.689Z,1.42
2022-12-04T06:31:16.903Z,1.40
2022-12-04T06:33:44.684Z,1.23
2022-12-04T06:36:15.298Z,1.20
2022-12-04T06:38:43.359Z,1.33
2022-12-04T06:41:13.680Z,1.15
2022-12-04T06:43:41.814Z,1.17
2022-12-04T06:46:11.209Z,1.63
2022-12-04T06:48:39.588Z,1.10
2022-12-04T06:51:13.043Z,1.20
2022-12-04T06:53:40.863Z,1.27
2022-12-04T06:56:11.695Z,1.92
2022-12-04T06:58:39.316Z,2.08
2022-12-04T07:01:12.377Z,1.55
2022-12-04T07:03:42.597Z,1.05
2022-12-04T07:06:35.504Z,1.88
2022-12-04T07:09:15.019Z,0.98
2022-12-04T07:11:43.771Z,1.70
2022-12-04T07:14:12.852Z,1.02
2022-12-04T07:16:42.572Z,1.30
2022-12-04T07:19:12.891Z,1.40
2022-12-04T07:21:41.183Z,1.02
2022-12-04T07:24:15.603Z,0.93
2022-12-04T07:26:43.443Z,1.10
2022-12-04T07:29:11.028Z,1.17
2022-12-04T07:31:39.070Z,0.95
2022-12-04T07:34:06.802Z,0.80
2022-12-04T07:36:34.316Z,0.70
2022-12-04T07:39:02.074Z,1.10
2022-12-04T07:41:29.597Z,1.02
2022-12-04T07:43:57.230Z,1.30
2022-12-04T07:46:28.049Z,1.25
2022-12-04T07:48:56.820Z,0.77
2022-12-04T07:51:26.641Z,0.98
2022-12-04T07:53:55.678Z,0.80
2022-12-04T07:56:23.411Z,1.00
2022-12-04T07:58:50.953Z,0.90
2022-12-04T08:01:23.688Z,1.17
2022-12-04T08:03:55.139Z,2.35
2022-12-04T08:06:24.900Z,2.92
2022-12-04T08:08:52.913Z,2.88
2022-12-04T08:11:23.552Z,4.38
2022-12-04T08:13:59.591Z,3.60
2022-12-04T08:16:28.960Z,4.55
2022-12-04T08:18:57.260Z,3.83
2022-12-04T08:21:28.015Z,3.63
2022-12-04T08:23:57.048Z,4.13
2022-12-04T08:26:28.252Z,4.75
2022-12-04T08:28:56.882Z,3.15
2022-12-04T08:31:27.126Z,3.40
2022-12-04T08:33:58.036Z,3.22
2022-12-04T08:36:26.744Z,3.20
2022-12-04T08:38:54.413Z,4.00
2022-12-04T08:41:24.387Z,3.10
2022-12-04T08:43:56.615Z,3.72
2022-12-04T08:46:26.317Z,4.13
2022-12-04T08:48:54.877Z,2.95
2022-12-04T08:51:28.551Z,3.72
2022-12-04T08:54:02.329Z,4.47
2022-12-04T08:56:31.241Z,3.28
2022-12-04T08:58:59.863Z,3.80
2022-12-04T09:01:28.793Z,2.60
2022-12-04T09:03:56.737Z,2.35
2022-12-04T09:06:24.756Z,2.65
2022-12-04T09:08:54.687Z,3.22
2022-12-04T09:11:24.576Z,2.10
2022-12-04T09:13:52.661Z,2.00
2022-12-04T09:16:23.173Z,3.20
2022-12-04T09:18:51.128Z,2.70
2022-12-04T09:21:20.721Z,2.60
2022-12-04T09:23:48.613Z,2.75
2022-12-04T09:26:34.404Z,2.47
2022-12-04T09:29:04.239Z,2.90
2022-12-04T09:31:32.698Z,3.55
2022-12-04T09:34:01.501Z,3.22
2022-12-04T09:36:29.348Z,2.17
2022-12-04T09:38:57.931Z,2.95
2022-12-04T09:41:44.140Z,2.53
2022-12-04T09:44:38.602Z,2.67
2022-12-04T09:47:29.473Z,3.33
2022-12-04T09:50:12.757Z,3.50
2022-12-04T09:52:46.928Z,3.75
2022-12-04T09:55:41.339Z,3.90
2022-12-04T09:58:15.095Z,3.47
2022-12-04T10:00:46.256Z,2.95
2022-12-04T10:03:20.106Z,3.22
2022-12-04T10:06:08.403Z,3.28
2022-12-04T10:08:39.762Z,3.00
2022-12-04T10:11:31.963Z,3.60
2022-12-04T10:14:42.203Z,2.23
2022-12-04T10:17:37.251Z,3.33
2022-12-04T10:20:13.755Z,4.63
2022-12-04T10:22:54.646Z,3.17
2022-12-04T10:25:24.242Z,3.97
2022-12-04T10:27:57.631Z,4.00
2022-12-04T10:30:28.886Z,4.05
2022-12-04T10:33:23.997Z,2.63
2022-12-04T10:36:12.251Z,3.03
2022-12-04T10:39:07.441Z,3.20
2022-12-04T10:42:05.605Z,2.97
2022-12-04T10:44:33.398Z,3.33
2022-12-04T10:47:03.502Z,4.03
2022-12-04T10:49:34.290Z,4.35
2022-12-04T10:52:02.234Z,5.05
2022-12-04T10:54:43.576Z,5.63
2022-12-04T10:57:14.020Z,5.35
2022-12-04T10:59:56.407Z,4.90
2022-12-04T11:02:32.850Z,4.45
2022-12-04T11:05:07.285Z,4.15
2022-12-04T11:07:47.108Z,4.80
2022-12-04T11:10:22.060Z,3.33
2022-12-04T11:12:58.365Z,4.53
2022-12-04T11:15:26.174Z,3.90
2022-12-04T11:17:53.707Z,4.13
2022-12-04T11:20:27.689Z,4.07
2022-12-04T11:22:57.355Z,4.18
2022-12-04T11:25:33.994Z,4.22
2022-12-04T11:28:03.675Z,5.35
2022-12-04T11:30:37.119Z,5.05
2022-12-04T11:33:16.237Z,5.80
2022-12-04T11:35:59.304Z,6.03
2022-12-04T11:38:29.176Z,6.25
2022-12-04T11:40:59.240Z,4.50
2022-12-04T11:43:29.422Z,4.05
2022-12-04T11:46:02.872Z,4.35
2022-12-04T11:48:43.766Z,4.07
2022-12-04T11:51:20.329Z,4.10
2022-12-04T11:53:54.256Z,2.83
2022-12-04T11:56:47.272Z,3.03
2022-12-04T11:59:33.647Z,3.67
2022-12-04T12:02:13.527Z,3.20
2022-12-04T12:05:05.556Z,3.58
2022-12-04T12:08:02.449Z,3.42
2022-12-04T12:11:00.098Z,3.40
2022-12-04T12:13:49.609Z,3.75
2022-12-04T12:16:28.342Z,3.70
2022-12-04T12:19:14.233Z,3.60
2022-12-04T12:21:54.277Z,4.60
2022-12-04T12:24:32.339Z,3.60
2022-12-04T12:27:29.950Z,3.42
2022-12-04T12:30:16.095Z,3.60
2022-12-04T12:33:28.770Z,5.78
2022-12-04T12:36:10.007Z,3.80
2022-12-04T12:39:02.493Z,3.88
2022-12-04T12:41:39.716Z,3.42
2022-12-04T12:44:23.367Z,3.28
2022-12-04T12:46:54.527Z,2.30
2022-12-04T12:49:28.212Z,5.63
2022-12-04T12:52:07.773Z,4.40
2022-12-04T12:54:44.058Z,5.28
2022-12-04T12:57:29.279Z,3.10
2022-12-04T13:00:04.701Z,3.17
2022-12-04T13:02:56.069Z,4.10
2022-12-04T13:05:39.620Z,3.20
2022-12-04T13:10:46.255Z,5.32
2022-12-04T13:13:19.730Z,4.53
2022-12-04T13:15:55.895Z,4.18
2022-12-04T13:18:38.659Z,4.40
2022-12-04T13:21:08.104Z,10.38
2022-12-04T13:24:15.989Z,5.28
2022-12-04T13:26:49.934Z,3.92
2022-12-04T13:29:39.533Z,4.63
2022-12-04T13:32:37.343Z,4.55
2022-12-04T13:35:17.205Z,3.80
2022-12-04T13:38:08.918Z,5.05
2022-12-04T13:41:01.508Z,5.05
2022-12-04T13:43:41.641Z,5.75
2022-12-04T13:46:39.236Z,5.95
2022-12-04T13:49:15.829Z,5.90
2022-12-04T13:51:44.860Z,5.65
2022-12-04T13:54:18.529Z,5.18
2022-12-04T13:56:49.063Z,5.90
2022-12-04T13:59:28.029Z,4.72
2022-12-04T14:02:20.193Z,5.03
2022-12-04T14:04:56.461Z,5.18
2022-12-04T14:07:25.898Z,6.03
2022-12-04T14:09:55.790Z,6.25
2022-12-04T14:12:39.822Z,6.50
2022-12-04T14:15:20.831Z,5.45
2022-12-04T14:18:02.859Z,4.70
2022-12-04T14:20:33.235Z,5.53
2022-12-04T14:23:16.507Z,5.13
2022-12-04T14:25:44.320Z,4.40
2022-12-04T14:28:36.141Z,6.28
2022-12-04T14:31:29.192Z,7.80
2022-12-04T14:34:01.831Z,5.32
2022-12-04T14:36:33.799Z,4.75
2022-12-04T14:39:32.379Z,4.65
2022-12-04T14:42:23.442Z,5.32
2022-12-04T14:45:02.560Z,4.97
2022-12-04T14:47:36.190Z,5.68
2022-12-04T14:50:29.297Z,6.32
2022-12-04T14:53:21.548Z,5.90
2022-12-04T14:56:07.465Z,5.60
2022-12-04T14:58:38.915Z,5.60
2022-12-04T15:01:30.072Z,5.82
2022-12-04T15:04:02.036Z,6.28
2022-12-04T15:06:32.601Z,7.82
2022-12-04T15:09:21.835Z,7.53
2022-12-04T15:12:17.506Z,7.15
2022-12-04T15:14:47.477Z,6.47
2022-12-04T15:17:17.167Z,6.75
2022-12-04T15:19:45.800Z,6.20
2022-12-04T15:22:26.910Z,7.18
2022-12-04T15:24:55.584Z,7.57
2022-12-04T15:27:31.956Z,5.75
2022-12-04T15:30:02.374Z,5.80
2022-12-04T15:32:32.109Z,6.70
2022-12-04T15:35:09.278Z,6.90
2022-12-04T15:37:37.139Z,6.85
2022-12-04T15:40:09.495Z,6.35
2022-12-04T15:42:37.024Z,7.40
2022-12-04T15:45:10.739Z,6.65
2022-12-04T15:47:42.667Z,7.38
2022-12-04T15:50:11.729Z,7.25
2022-12-04T15:52:51.481Z,6.00
2022-12-04T15:55:21.637Z,6.47
2022-12-04T15:57:57.549Z,7.43
2022-12-04T16:00:29.979Z,8.30
2022-12-04T16:02:59.284Z,7.07
2022-12-04T16:05:35.574Z,7.93
2022-12-04T16:08:24.823Z,7.00
2022-12-04T16:10:58.608Z,7.53
2022-12-04T16:13:32.815Z,6.90
2022-12-04T16:16:01.809Z,7.32
2022-12-04T16:18:29.504Z,8.25
2022-12-04T16:20:57.322Z,7.68
2022-12-04T16:23:26.182Z,7.43
2022-12-04T16:25:53.955Z,8.48
2022-12-04T16:28:21.605Z,7.18
2022-12-04T16:30:52.458Z,8.35
2022-12-04T16:33:20.051Z,7.72
2022-12-04T16:35:47.710Z,8.07
2022-12-04T16:38:17.142Z,8.73
2022-12-04T16:40:46.177Z,8.18
2022-12-04T16:43:15.607Z,8.73
2022-12-04T16:45:52.910Z,8.80
2022-12-04T16:48:21.243Z,9.57
2022-12-04T16:50:48.786Z,8.77
2022-12-04T16:53:21.496Z,9.25
2022-12-04T16:55:51.229Z,8.75
2022-12-04T16:58:20.417Z,9.40
2022-12-04T17:00:56.311Z,8.63
2022-12-04T17:03:34.088Z,9.68
2022-12-04T17:06:01.891Z,8.32
2022-12-04T17:08:29.809Z,8.38
2022-12-04T17:10:57.475Z,8.85
2022-12-04T17:13:25.116Z,8.65
2022-12-04T17:15:52.777Z,8.82
2022-12-04T17:18:21.452Z,9.23
2022-12-04T17:20:49.302Z,8.82
2022-12-04T17:23:17.165Z,9.80
2022-12-04T17:25:44.681Z,10.75
2022-12-04T17:28:12.460Z,10.90
2022-12-04T17:30:43.862Z,10.88
2022-12-04T17:33:11.405Z,11.20
2022-12-04T17:35:43.528Z,10.43
2022-12-04T17:38:11.168Z,10.88
2022-12-04T17:40:38.723Z,10.00
2022-12-04T17:43:06.153Z,11.07
2022-12-04T17:45:33.858Z,10.60
2022-12-04T17:48:01.487Z,9.73
2022-12-04T17:50:29.226Z,9.68
2022-12-04T17:52:56.722Z,10.82
2022-12-04T17:55:24.466Z,9.60
2022-12-04T17:57:51.959Z,10.65
2022-12-04T18:00:19.780Z,9.50
2022-12-04T18:02:51.660Z,10.13
2022-12-04T18:05:21.163Z,10.98
2022-12-04T18:07:49.153Z,10.55
2022-12-04T18:10:16.850Z,11.20
2022-12-04T18:12:44.444Z,10.30
2022-12-04T18:15:11.935Z,10.93
2022-12-04T18:17:40.087Z,9.02
2022-12-04T18:20:08.599Z,9.73
2022-12-04T18:22:36.393Z,10.35
2022-12-04T18:25:04.310Z,9.80
2022-12-04T18:27:31.845Z,8.95
2022-12-04T18:30:01.621Z,10.65
2022-12-04T18:32:29.200Z,9.15
2022-12-04T18:34:56.931Z,9.90
2022-12-04T18:37:24.497Z,9.68
2022-12-04T18:39:52.287Z,10.65
2022-12-04T18:42:19.879Z,9.50
2022-12-04T18:44:47.680Z,9.05
2022-12-04T18:47:15.234Z,10.18
2022-12-04T18:49:43.099Z,9.43
2022-12-04T18:52:10.625Z,9.50
2022-12-04T18:54:38.250Z,10.82
2022-12-04T18:57:05.721Z,9.02
2022-12-04T18:59:33.355Z,9.55
2022-12-04T19:02:00.873Z,10.27
2022-12-04T19:04:31.620Z,9.93
2022-12-04T19:06:59.272Z,10.65
2022-12-04T19:09:54.367Z,11.60
2022-12-04T19:12:16.917Z,9.93
2022-12-04T19:14:44.750Z,10.48
2022-12-04T19:17:12.430Z,10.82
2022-12-04T19:19:39.938Z,11.52
2022-12-04T19:22:07.593Z,12.52
2022-12-04T19:24:35.130Z,10.73
2022-12-04T19:27:10.110Z,12.18
2022-12-04T19:29:43.023Z,12.32
2022-12-04T19:32:11.231Z,10.98
2022-12-04T19:34:39.037Z,12.23
2022-12-04T19:37:07.798Z,12.40
2022-12-04T19:39:35.582Z,10.85
2022-12-04T19:42:03.375Z,10.88
2022-12-04T19:47:19.240Z,11.32
2022-12-04T19:49:47.020Z,11.40
2022-12-04T19:52:15.335Z,10.85
2022-12-04T19:54:42.876Z,10.52
2022-12-04T19:57:10.516Z,11.43
2022-12-04T19:59:43.116Z,10.70
2022-12-04T20:02:13.748Z,12.23
2022-12-04T20:04:41.604Z,11.18
2022-12-04T20:07:09.068Z,12.32
2022-12-04T20:09:36.779Z,13.07
2022-12-04T20:12:04.683Z,12.18
2022-12-04T20:14:32.294Z,12.15
2022-12-04T20:17:01.813Z,12.35
2022-12-04T20:19:29.458Z,12.57
2022-12-04T20:21:59.466Z,12.38
2022-12-04T20:24:27.265Z,11.43
2022-12-04T20:26:54.897Z,11.65
2022-12-04T20:29:22.430Z,11.98
2022-12-04T20:31:50.022Z,11.45
2022-12-04T20:34:18.925Z,12.32
2022-12-04T20:36:47.924Z,10.13
2022-12-04T20:39:17.358Z,11.13
2022-12-04T20:41:45.251Z,10.20
2022-12-04T20:44:15.819Z,9.23
2022-12-04T20:46:44.702Z,11.40
2022-12-04T20:49:20.787Z,12.30
2022-12-04T20:51:50.277Z,10.90
2022-12-04T20:54:20.180Z,10.60
2022-12-04T20:56:49.175Z,9.77
2022-12-04T20:59:19.433Z,10.90
2022-12-04T21:01:49.034Z,10.57
2022-12-04T21:04:18.089Z,12.13
2022-12-04T21:06:47.027Z,12.27
2022-12-04T21:09:25.035Z,12.60
2022-12-04T21:11:56.115Z,11.57
2022-12-04T21:14:47.270Z,10.55
2022-12-04T21:17:21.561Z,10.73
2022-12-04T21:19:50.645Z,10.30
2022-12-04T21:22:19.651Z,10.60
2022-12-04T21:24:47.230Z,10.73
2022-12-04T21:27:20.755Z,10.77
2022-12-04T21:29:49.885Z,11.23
2022-12-04T21:32:19.095Z,9.80
2022-12-04T21:34:46.806Z,11.13
2022-12-04T21:37:14.330Z,12.13
2022-12-04T21:39:43.140Z,10.75
2022-12-04T21:42:29.072Z,10.93
2022-12-04T21:44:57.942Z,11.65
2022-12-04T21:47:25.809Z,12.32
2022-12-04T21:49:54.695Z,11.82
2022-12-04T21:52:22.423Z,10.93
2022-12-04T21:54:54.058Z,11.25
2022-12-04T21:57:22.392Z,11.25
2022-12-04T21:59:52.278Z,11.23
2022-12-04T22:02:20.492Z,11.52
2022-12-04T22:04:48.144Z,10.68
2022-12-04T22:07:16.018Z,9.98
2022-12-04T22:09:43.573Z,11.18
2022-12-04T22:12:33.084Z,11.07
2022-12-04T22:14:58.838Z,10.63
2022-12-04T22:17:29.697Z,9.57
2022-12-04T22:19:57.582Z,9.93
2022-12-04T22:22:25.405Z,10.18
2022-12-04T22:24:53.021Z,9.98
2022-12-04T22:27:20.524Z,10.93
2022-12-04T22:29:50.871Z,11.35
2022-12-04T22:32:20.048Z,11.20
2022-12-04T22:34:50.581Z,10.63
2022-12-04T22:37:18.159Z,11.43
2022-12-04T22:39:45.730Z,11.82
2022-12-04T22:42:13.451Z,10.45
2022-12-04T22:44:41.090Z,9.35
2022-12-04T22:47:08.570Z,12.00
2022-12-04T22:49:36.136Z,11.48
2022-12-04T22:52:03.926Z,12.05
2022-12-04T22:54:31.530Z,11.48
2022-12-04T22:56:59.292Z,11.60
2022-12-04T22:59:26.871Z,12.00
2022-12-04T23:01:54.396Z,11.63
2022-12-04T23:04:21.993Z,11.43
2022-12-04T23:06:49.545Z,12.05
2022-12-04T23:09:17.912Z,11.95
2022-12-04T23:11:45.848Z,13.00
2022-12-04T23:14:15.068Z,13.68
2022-12-04T23:16:43.133Z,14.45
2022-12-04T23:19:16.664Z,13.52
2022-12-04T23:21:45.315Z,14.32
2022-12-04T23:24:13.647Z,12.20
2022-12-04T23:26:44.932Z,13.65
2022-12-04T23:29:36.956Z,12.15
2022-12-04T23:32:01.062Z,10.65
2022-12-04T23:34:28.714Z,11.85
2022-12-04T23:36:56.342Z,11.68
2022-12-04T23:39:23.885Z,10.48
2022-12-04T23:41:51.568Z,11.82
2022-12-04T23:44:19.233Z,12.05
2022-12-04T23:46:46.866Z,11.45
2022-12-04T23:49:14.569Z,15.10
2022-12-04T23:51:42.194Z,12.57
2022-12-04T23:54:10.548Z,11.50
2022-12-04T23:56:38.216Z,12.75
2022-12-04T23:59:05.751Z,12.23
